Terminal Aerodrome Forecast
Issued by NWS Quad Cities IA IL

Home | Current Version | Previous Version | Text Only | Print | Product List | Glossary On
Versions: 1 2 3 4 5 6 7 8 9 10 11 12 13 14 15 16 17 18 19 20 21 22 23 24 25 26 27
642
FTUS43 KDVN 301232 AAA
TAFDBQ
TAF AMD
KDBQ 301232Z 3013/0112 08015KT 6SM -RA BR SCT012 OVC020
      TEMPO 3013/3015 3SM -RA BR OVC012
     FM301600 07015G21KT 5SM -RA BR OVC007
     FM302200 06017G22KT 6SM BR VCSH OVC006
     FM010400 05014KT 6SM BR VCSH OVC006=

USA.gov is the U.S. government's official web portal to all federal, state and local government web resources and services.